Wetterdaten: Montag, 16.03.2026
Datum Zeit Temp. Aussen Temp. o. S. Temp +5cm Feuchte Auss Luftdruck Regen Sonnenschein Solar Windböen Empfang
16.03.2026 00:00 6,5 °C 5,6 °C 2,2 °C 79 % 1011,9 hPa 0,0 l/m² 0 min 0 W/m² 16,1 km/h (3 Bft) 97,62 %
16.03.2026 00:02 6,5 °C 5,6 °C 2,2 °C 79 % 1011,8 hPa 0,0 l/m² 0 min 0 W/m² 19,3 km/h (3 Bft) 95,00 %
16.03.2026 00:04 6,4 °C 5,6 °C 2,2 °C 79 % 1011,7 hPa 0,0 l/m² 0 min 0 W/m² 16,1 km/h (3 Bft) 97,87 %
16.03.2026 00:07 6,4 °C 5,6 °C 1,7 °C 79 % 1011,7 hPa 0,0 l/m² 0 min 0 W/m² 16,1 km/h (3 Bft) 96,43 %
16.03.2026 00:08 6,4 °C 5,6 °C 1,7 °C 79 % 1011,7 hPa 0,0 l/m² 0 min 0 W/m² 6,4 km/h (2 Bft) 96,43 %
16.03.2026 00:12 6,4 °C 5,6 °C 1,7 °C 79 % 1011,8 hPa 0,0 l/m² 0 min 0 W/m² 12,9 km/h (3 Bft) 96,08 %
16.03.2026 00:15 6,4 °C 5,6 °C 2,2 °C 79 % 1011,8 hPa 0,0 l/m² 0 min 0 W/m² 16,1 km/h (3 Bft) 97,06 %
16.03.2026 00:16 6,4 °C 5,6 °C 2,2 °C 79 % 1011,8 hPa 0,0 l/m² 0 min 0 W/m² 12,9 km/h (3 Bft) 97,06 %
16.03.2026 00:20 6,4 °C 5,6 °C 2,2 °C 80 % 1011,8 hPa 0,0 l/m² 0 min 0 W/m² 19,3 km/h (3 Bft) 96,75 %
16.03.2026 00:24 6,4 °C 5,6 °C 2,2 °C 80 % 1011,8 hPa 0,0 l/m² 0 min 0 W/m² 16,1 km/h (3 Bft) 94,38 %
16.03.2026 00:28 6,4 °C 5,6 °C 2,2 °C 80 % 1011,9 hPa 0,0 l/m² 0 min 0 W/m² 16,1 km/h (3 Bft) 94,12 %
16.03.2026 00:32 6,5 °C 6,1 °C 2,2 °C 80 % 1012,0 hPa 0,0 l/m² 0 min 0 W/m² 16,1 km/h (3 Bft) 95,56 %
16.03.2026 00:36 6,7 °C 5,6 °C 1,1 °C 81 % 1012,0 hPa 0,0 l/m² 0 min 0 W/m² 51,5 km/h (7 Bft) 95,70 %
16.03.2026 00:40 6,8 °C 5,0 °C 1,1 °C 83 % 1012,2 hPa 0,2 l/m² 0 min 0 W/m² 45,1 km/h (6 Bft) 95,51 %
16.03.2026 00:44 6,7 °C 4,4 °C 0,6 °C 84 % 1012,4 hPa 0,2 l/m² 0 min 0 W/m² 32,2 km/h (5 Bft) 95,00 %
16.03.2026 00:48 6,5 °C 4,4 °C 0,6 °C 85 % 1012,2 hPa 0,2 l/m² 0 min 0 W/m² 25,7 km/h (4 Bft) 97,89 %
16.03.2026 00:52 6,2 °C 3,9 °C 0,6 °C 86 % 1012,1 hPa 0,2 l/m² 0 min 0 W/m² 38,6 km/h (5 Bft) 100,00 %
16.03.2026 00:56 6,1 °C 3,9 °C 0,6 °C 87 % 1012,1 hPa 0,5 l/m² 0 min 0 W/m² 29,0 km/h (5 Bft) 100,00 %
16.03.2026 01:00 5,9 °C 3,9 °C 0,6 °C 88 % 1012,0 hPa 0,0 l/m² 0 min 0 W/m² 29,0 km/h (5 Bft) 99,03 %
16.03.2026 01:08 5,8 °C 3,9 °C 0,6 °C 89 % 1011,7 hPa 0,0 l/m² 0 min 0 W/m² 29,0 km/h (5 Bft) 98,90 %
16.03.2026 01:09 5,8 °C 3,9 °C 0,6 °C 89 % 1011,7 hPa 0,0 l/m² 0 min 0 W/m² 25,7 km/h (4 Bft) 98,90 %
16.03.2026 01:10 5,8 °C 3,9 °C 0,6 °C 89 % 1011,6 hPa 0,2 l/m² 0 min 0 W/m² 25,7 km/h (4 Bft) 98,90 %
16.03.2026 01:12 5,8 °C 3,9 °C 0,6 °C 89 % 1011,8 hPa 0,2 l/m² 0 min 0 W/m² 25,7 km/h (4 Bft) 97,94 %
16.03.2026 01:16 5,8 °C 3,9 °C 0,6 °C 89 % 1011,6 hPa 0,0 l/m² 0 min 0 W/m² 25,7 km/h (4 Bft) 100,00 %
16.03.2026 01:20 5,7 °C 3,9 °C 0,6 °C 90 % 1011,5 hPa 0,0 l/m² 0 min 0 W/m² 19,3 km/h (3 Bft) 98,82 %
16.03.2026 01:24 5,7 °C 3,9 °C 0,6 °C 90 % 1011,4 hPa 0,0 l/m² 0 min 0 W/m² 29,0 km/h (5 Bft) 100,00 %
16.03.2026 01:28 5,7 °C 4,4 °C 0,6 °C 90 % 1011,4 hPa 0,0 l/m² 0 min 0 W/m² 22,5 km/h (4 Bft) 100,00 %
16.03.2026 01:32 5,7 °C 4,4 °C 0,6 °C 90 % 1011,3 hPa 0,0 l/m² 0 min 0 W/m² 29,0 km/h (5 Bft) 97,80 %
16.03.2026 01:36 5,7 °C 4,4 °C 0,6 °C 90 % 1011,0 hPa 0,0 l/m² 0 min 0 W/m² 25,7 km/h (4 Bft) 98,89 %
16.03.2026 01:40 5,7 °C 4,4 °C 0,6 °C 91 % 1011,1 hPa 0,0 l/m² 0 min 0 W/m² 22,5 km/h (4 Bft) 98,00 %
16.03.2026 01:44 5,7 °C 4,4 °C 0,6 °C 91 % 1010,9 hPa 0,0 l/m² 0 min 0 W/m² 29,0 km/h (5 Bft) 100,00 %
16.03.2026 01:48 5,7 °C 4,4 °C 0,6 °C 91 % 1010,9 hPa 0,0 l/m² 0 min 0 W/m² 25,7 km/h (4 Bft) 98,95 %
16.03.2026 01:52 5,7 °C 4,4 °C 0,6 °C 91 % 1010,8 hPa 0,0 l/m² 0 min 0 W/m² 41,8 km/h (6 Bft) 100,00 %
16.03.2026 01:56 5,7 °C 4,4 °C 0,6 °C 91 % 1010,8 hPa 0,0 l/m² 0 min 0 W/m² 38,6 km/h (5 Bft) 98,90 %
16.03.2026 02:00 5,7 °C 4,4 °C 0,6 °C 91 % 1010,6 hPa 0,0 l/m² 0 min 0 W/m² 25,7 km/h (4 Bft) 100,00 %
16.03.2026 02:04 5,7 °C 4,4 °C 0,6 °C 91 % 1010,7 hPa 0,0 l/m² 0 min 0 W/m² 35,4 km/h (5 Bft) 98,90 %
16.03.2026 02:08 5,8 °C 4,4 °C 0,6 °C 91 % 1010,6 hPa 0,0 l/m² 0 min 0 W/m² 57,9 km/h (7 Bft) 97,94 %
16.03.2026 02:12 5,8 °C 5,0 °C 0,6 °C 91 % 1010,5 hPa 0,0 l/m² 0 min 0 W/m² 32,2 km/h (5 Bft) 96,63 %
16.03.2026 02:16 5,8 °C 5,0 °C 0,6 °C 91 % 1010,5 hPa 0,0 l/m² 0 min 0 W/m² 32,2 km/h (5 Bft) 93,20 %
16.03.2026 02:20 5,8 °C 5,0 °C 0,6 °C 91 % 1010,4 hPa 0,0 l/m² 0 min 0 W/m² 22,5 km/h (4 Bft) 95,35 %
16.03.2026 02:24 5,9 °C 5,0 °C 0,6 °C 91 % 1010,5 hPa 0,0 l/m² 0 min 0 W/m² 32,2 km/h (5 Bft) 94,38 %
16.03.2026 02:28 5,9 °C 5,0 °C 0,6 °C 91 % 1010,4 hPa 0,0 l/m² 0 min 0 W/m² 25,7 km/h (4 Bft) 93,68 %
16.03.2026 02:32 6,0 °C 5,0 °C 0,6 °C 91 % 1010,4 hPa 0,0 l/m² 0 min 0 W/m² 25,7 km/h (4 Bft) 92,71 %
16.03.2026 02:36 6,0 °C 5,0 °C 0,6 °C 91 % 1010,4 hPa 0,0 l/m² 0 min 0 W/m² 29,0 km/h (5 Bft) 92,00 %
16.03.2026 02:40 6,1 °C 5,0 °C 0,6 °C 91 % 1010,4 hPa 0,0 l/m² 0 min 0 W/m² 19,3 km/h (3 Bft) 93,41 %
16.03.2026 02:44 6,1 °C 5,0 °C 0,6 °C 91 % 1010,4 hPa 0,0 l/m² 0 min 0 W/m² 32,2 km/h (5 Bft) 95,56 %
16.03.2026 02:48 6,1 °C 5,6 °C 0,6 °C 90 % 1010,3 hPa 0,0 l/m² 0 min 0 W/m² 22,5 km/h (4 Bft) 93,88 %
16.03.2026 02:52 6,1 °C 5,6 °C 0,6 °C 90 % 1010,2 hPa 0,0 l/m² 0 min 0 W/m² 29,0 km/h (5 Bft) 94,32 %
16.03.2026 02:56 6,2 °C 5,6 °C 1,1 °C 90 % 1010,3 hPa 0,0 l/m² 0 min 0 W/m² 29,0 km/h (5 Bft) 95,05 %
16.03.2026 03:00 6,2 °C 5,6 °C 1,1 °C 91 % 1010,2 hPa 0,0 l/m² 0 min 0 W/m² 25,7 km/h (4 Bft) 94,74 %
16.03.2026 03:03 6,2 °C 5,6 °C 1,1 °C 91 % 1010,3 hPa 0,0 l/m² 0 min 0 W/m² 29,0 km/h (5 Bft) 92,42 %
16.03.2026 03:04 6,2 °C 5,6 °C 1,1 °C 91 % 1010,3 hPa 0,0 l/m² 0 min 0 W/m² 29,0 km/h (5 Bft) 92,42 %
16.03.2026 03:08 6,3 °C 5,6 °C 1,1 °C 91 % 1010,2 hPa 0,0 l/m² 0 min 0 W/m² 29,0 km/h (5 Bft) 98,37 %
16.03.2026 03:11 6,3 °C 5,6 °C 1,1 °C 91 % 1010,2 hPa 0,0 l/m² 0 min 0 W/m² 29,0 km/h (5 Bft) 100,00 %
16.03.2026 03:12 6,3 °C 5,6 °C 1,1 °C 91 % 1010,3 hPa 0,0 l/m² 0 min 0 W/m² 16,1 km/h (3 Bft) 100,00 %
16.03.2026 03:16 6,4 °C 5,6 °C 1,1 °C 90 % 1010,3 hPa 0,0 l/m² 0 min 0 W/m² 29,0 km/h (5 Bft) 97,27 %
16.03.2026 03:19 6,5 °C 5,6 °C 1,1 °C 90 % 1010,3 hPa 0,0 l/m² 0 min 0 W/m² 25,7 km/h (4 Bft) 97,27 %
16.03.2026 03:20 6,5 °C 5,6 °C 1,1 °C 90 % 1010,3 hPa 0,0 l/m² 0 min 0 W/m² 25,7 km/h (4 Bft) 100,00 %
16.03.2026 03:24 6,5 °C 5,6 °C 1,1 °C 90 % 1010,3 hPa 0,0 l/m² 0 min 0 W/m² 19,3 km/h (3 Bft) 97,65 %
16.03.2026 03:28 6,5 °C 5,0 °C 1,1 °C 91 % 1010,2 hPa 0,5 l/m² 0 min 0 W/m² 16,1 km/h (3 Bft) 98,06 %
16.03.2026 03:32 6,5 °C 5,0 °C 1,1 °C 91 % 1010,3 hPa 0,2 l/m² 0 min 0 W/m² 12,9 km/h (3 Bft) 100,00 %
16.03.2026 03:36 6,5 °C 5,0 °C 1,1 °C 91 % 1010,4 hPa 0,2 l/m² 0 min 0 W/m² 12,9 km/h (3 Bft) 100,00 %
16.03.2026 03:40 6,4 °C 5,0 °C 1,1 °C 91 % 1010,6 hPa 0,5 l/m² 0 min 0 W/m² 19,3 km/h (3 Bft) 97,78 %
16.03.2026 03:44 6,3 °C 5,0 °C 1,1 °C 92 % 1010,4 hPa 0,5 l/m² 0 min 0 W/m² 16,1 km/h (3 Bft) 98,88 %
16.03.2026 03:48 6,1 °C 5,0 °C 1,1 °C 92 % 1010,2 hPa 0,0 l/m² 0 min 0 W/m² 16,1 km/h (3 Bft) 98,96 %
16.03.2026 03:52 6,0 °C 5,0 °C 1,1 °C 92 % 1010,2 hPa 0,0 l/m² 0 min 0 W/m² 19,3 km/h (3 Bft) 100,00 %
16.03.2026 03:56 5,8 °C 5,0 °C 1,1 °C 92 % 1010,0 hPa 0,0 l/m² 0 min 0 W/m² 19,3 km/h (3 Bft) 97,03 %
16.03.2026 04:00 5,8 °C 5,0 °C 1,1 °C 93 % 1010,1 hPa 0,0 l/m² 0 min 0 W/m² 9,7 km/h (2 Bft) 97,73 %
16.03.2026 04:04 5,8 °C 4,4 °C 1,1 °C 93 % 1010,0 hPa 0,0 l/m² 0 min 0 W/m² 12,9 km/h (3 Bft) 100,00 %
16.03.2026 04:08 5,7 °C 4,4 °C 1,1 °C 93 % 1009,9 hPa 0,0 l/m² 0 min 0 W/m² 16,1 km/h (3 Bft) 90,91 %
16.03.2026 04:12 5,7 °C 4,4 °C 1,1 °C 93 % 1010,0 hPa 0,0 l/m² 0 min 0 W/m² 9,7 km/h (2 Bft) 96,63 %
16.03.2026 04:20 5,6 °C 4,4 °C 0,6 °C 93 % 1010,1 hPa 0,0 l/m² 0 min 0 W/m² 9,7 km/h (2 Bft) 97,94 %
16.03.2026 04:21 5,6 °C 5,0 °C 0,6 °C 93 % 1010,0 hPa 0,0 l/m² 0 min 0 W/m² 3,2 km/h (1 Bft) 97,94 %
16.03.2026 04:22 5,6 °C 5,0 °C 0,6 °C 94 % 1010,1 hPa 0,0 l/m² 0 min 0 W/m² 3,2 km/h (1 Bft) 97,94 %
16.03.2026 04:24 5,6 °C 5,0 °C 0,6 °C 94 % 1010,2 hPa 0,0 l/m² 0 min 0 W/m² 6,4 km/h (2 Bft) 98,86 %
16.03.2026 04:28 5,6 °C 5,0 °C 1,1 °C 94 % 1010,2 hPa 0,0 l/m² 0 min 0 W/m² 12,9 km/h (3 Bft) 98,06 %
16.03.2026 04:32 5,6 °C 5,0 °C 1,1 °C 94 % 1010,1 hPa 0,0 l/m² 0 min 0 W/m² 6,4 km/h (2 Bft) 98,88 %
16.03.2026 04:36 5,7 °C 5,0 °C 1,1 °C 94 % 1010,0 hPa 0,0 l/m² 0 min 0 W/m² 9,7 km/h (2 Bft) 97,83 %
16.03.2026 04:40 5,7 °C 5,0 °C 1,1 °C 94 % 1010,1 hPa 0,0 l/m² 0 min 0 W/m² 12,9 km/h (3 Bft) 98,88 %
16.03.2026 04:43 5,7 °C 5,0 °C 1,1 °C 94 % 1010,1 hPa 0,0 l/m² 0 min 0 W/m² 12,9 km/h (3 Bft) 98,89 %
16.03.2026 04:44 5,7 °C 5,0 °C 1,1 °C 94 % 1010,1 hPa 0,0 l/m² 0 min 0 W/m² 16,1 km/h (3 Bft) 98,89 %
16.03.2026 04:48 5,7 °C 5,0 °C 1,1 °C 94 % 1010,1 hPa 0,2 l/m² 0 min 0 W/m² 16,1 km/h (3 Bft) 99,00 %
16.03.2026 04:51 5,7 °C 5,0 °C 1,1 °C 95 % 1010,2 hPa 0,0 l/m² 0 min 0 W/m² 16,1 km/h (3 Bft) 95,65 %
16.03.2026 04:52 5,7 °C 5,0 °C 1,1 °C 95 % 1010,2 hPa 0,0 l/m² 0 min 0 W/m² 12,9 km/h (3 Bft) 95,65 %
16.03.2026 04:56 5,7 °C 5,0 °C 1,1 °C 95 % 1010,2 hPa 0,0 l/m² 0 min 0 W/m² 22,5 km/h (4 Bft) 96,72 %
16.03.2026 04:59 5,7 °C 5,0 °C 1,1 °C 95 % 1010,3 hPa 0,0 l/m² 0 min 0 W/m² 6,4 km/h (2 Bft) 98,55 %
16.03.2026 05:00 5,7 °C 5,0 °C 1,1 °C 95 % 1010,3 hPa 0,0 l/m² 0 min 0 W/m² 16,1 km/h (3 Bft) 98,55 %
16.03.2026 05:04 5,7 °C 5,0 °C 1,1 °C 95 % 1010,3 hPa 0,0 l/m² 0 min 0 W/m² 16,1 km/h (3 Bft) 96,52 %
16.03.2026 05:07 5,6 °C 5,0 °C 1,1 °C 95 % 1010,3 hPa 0,0 l/m² 0 min 0 W/m² 12,9 km/h (3 Bft) 98,48 %
16.03.2026 05:08 5,7 °C 5,0 °C 1,1 °C 95 % 1010,3 hPa 0,0 l/m² 0 min 0 W/m² 9,7 km/h (2 Bft) 98,48 %
16.03.2026 05:12 5,6 °C 4,4 °C 0,6 °C 95 % 1010,3 hPa 0,0 l/m² 0 min 0 W/m² 16,1 km/h (3 Bft) 97,52 %
16.03.2026 05:15 5,6 °C 4,4 °C 0,6 °C 95 % 1010,3 hPa 0,0 l/m² 0 min 0 W/m² 9,7 km/h (2 Bft) 97,30 %
16.03.2026 05:16 5,6 °C 4,4 °C 0,6 °C 95 % 1010,3 hPa 0,0 l/m² 0 min 0 W/m² 6,4 km/h (2 Bft) 97,30 %
16.03.2026 05:20 5,5 °C 4,4 °C 0,6 °C 95 % 1010,3 hPa 0,0 l/m² 0 min 0 W/m² 16,1 km/h (3 Bft) 98,25 %
16.03.2026 05:23 5,5 °C 4,4 °C 0,6 °C 95 % 1010,4 hPa 0,0 l/m² 0 min 0 W/m² 19,3 km/h (3 Bft) 95,45 %
16.03.2026 05:24 5,5 °C 4,4 °C 0,6 °C 95 % 1010,4 hPa 0,0 l/m² 0 min 0 W/m² 12,9 km/h (3 Bft) 95,45 %
16.03.2026 05:28 5,5 °C 4,4 °C 0,6 °C 95 % 1010,4 hPa 0,0 l/m² 0 min 0 W/m² 16,1 km/h (3 Bft) 95,24 %
16.03.2026 05:31 5,5 °C 4,4 °C 0,6 °C 95 % 1010,5 hPa 0,0 l/m² 0 min 0 W/m² 16,1 km/h (3 Bft) 95,89 %
16.03.2026 05:32 5,5 °C 4,4 °C 0,6 °C 95 % 1010,6 hPa 0,0 l/m² 0 min 0 W/m² 12,9 km/h (3 Bft) 95,89 %
16.03.2026 05:36 5,6 °C 4,4 °C 1,1 °C 95 % 1010,5 hPa 0,0 l/m² 0 min 0 W/m² 12,9 km/h (3 Bft) 98,23 %
16.03.2026 05:39 5,6 °C 4,4 °C 1,1 °C 95 % 1010,5 hPa 0,0 l/m² 0 min 0 W/m² 6,4 km/h (2 Bft) 95,65 %
16.03.2026 05:40 5,6 °C 4,4 °C 1,1 °C 95 % 1010,5 hPa 0,0 l/m² 0 min 0 W/m² 3,2 km/h (1 Bft) 95,65 %
16.03.2026 05:44 5,6 °C 5,0 °C 1,1 °C 95 % 1010,5 hPa 0,0 l/m² 0 min 0 W/m² 16,1 km/h (3 Bft) 96,43 %
16.03.2026 05:47 5,6 °C 5,0 °C 1,1 °C 95 % 1010,6 hPa 0,0 l/m² 0 min 0 W/m² 9,7 km/h (2 Bft) 96,43 %
16.03.2026 05:48 5,6 °C 5,0 °C 1,1 °C 95 % 1010,6 hPa 0,0 l/m² 0 min 0 W/m² 9,7 km/h (2 Bft) 96,00 %
16.03.2026 05:52 5,7 °C 5,0 °C 1,1 °C 95 % 1010,6 hPa 0,0 l/m² 0 min 0 W/m² 12,9 km/h (3 Bft) 94,79 %
16.03.2026 05:56 5,7 °C 5,0 °C 1,1 °C 96 % 1010,6 hPa 0,0 l/m² 0 min 0 W/m² 22,5 km/h (4 Bft) 93,26 %
16.03.2026 06:00 5,8 °C 5,0 °C 1,1 °C 96 % 1010,6 hPa 0,0 l/m² 0 min 0 W/m² 9,7 km/h (2 Bft) 94,51 %
16.03.2026 06:04 5,9 °C 5,0 °C 1,1 °C 96 % 1010,6 hPa 0,0 l/m² 0 min 0 W/m² 16,1 km/h (3 Bft) 95,00 %
16.03.2026 06:08 5,9 °C 5,6 °C 1,1 °C 96 % 1010,6 hPa 0,0 l/m² 0 min 0 W/m² 29,0 km/h (5 Bft) 95,18 %
16.03.2026 06:12 6,0 °C 5,6 °C 1,1 °C 96 % 1011,0 hPa 0,0 l/m² 0 min 0 W/m² 12,9 km/h (3 Bft) 96,26 %
16.03.2026 06:16 6,1 °C 5,6 °C 1,7 °C 96 % 1011,5 hPa 0,2 l/m² 0 min 0 W/m² 25,7 km/h (4 Bft) 97,73 %
16.03.2026 06:20 5,2 °C 3,3 °C 0,0 °C 95 % 1011,6 hPa 1,2 l/m² 0 min 0 W/m² 51,5 km/h (7 Bft) 100,00 %
16.03.2026 06:24 4,7 °C 3,3 °C 0,0 °C 95 % 1011,5 hPa 0,0 l/m² 0 min 0 W/m² 19,3 km/h (3 Bft) 100,00 %
16.03.2026 06:27 4,5 °C 3,3 °C 0,0 °C 95 % 1011,5 hPa 0,0 l/m² 0 min 0 W/m² 12,9 km/h (3 Bft) 100,00 %
16.03.2026 06:28 4,4 °C 3,3 °C 0,0 °C 95 % 1011,5 hPa 0,0 l/m² 0 min 0 W/m² 9,7 km/h (2 Bft) 100,00 %
16.03.2026 06:32 4,4 °C 3,3 °C 0,0 °C 95 % 1011,5 hPa 0,0 l/m² 0 min 0 W/m² 9,7 km/h (2 Bft) 100,00 %
16.03.2026 06:35 4,4 °C 3,9 °C 0,0 °C 95 % 1011,5 hPa 0,0 l/m² 0 min 0 W/m² 16,1 km/h (3 Bft) 100,00 %
16.03.2026 06:36 4,4 °C 3,9 °C 0,0 °C 95 % 1011,5 hPa 0,0 l/m² 0 min 0 W/m² 6,4 km/h (2 Bft) 100,00 %
16.03.2026 06:40 4,5 °C 3,9 °C 0,0 °C 95 % 1011,5 hPa 0,0 l/m² 0 min 0 W/m² 6,4 km/h (2 Bft) 100,00 %
16.03.2026 06:43 4,5 °C 3,9 °C 0,0 °C 95 % 1011,4 hPa 0,0 l/m² 0 min 0 W/m² 12,9 km/h (3 Bft) 100,00 %
16.03.2026 06:44 4,5 °C 3,9 °C 0,0 °C 95 % 1011,4 hPa 0,0 l/m² 0 min 0 W/m² 16,1 km/h (3 Bft) 100,00 %
16.03.2026 06:48 4,6 °C 3,9 °C 0,0 °C 95 % 1011,5 hPa 0,0 l/m² 0 min 0 W/m² 16,1 km/h (3 Bft) 99,06 %
16.03.2026 06:51 4,7 °C 3,9 °C 0,0 °C 95 % 1011,6 hPa 0,0 l/m² 0 min 0 W/m² 29,0 km/h (5 Bft) 100,00 %
16.03.2026 06:52 4,7 °C 3,9 °C 0,0 °C 95 % 1011,6 hPa 0,0 l/m² 0 min 0 W/m² 19,3 km/h (3 Bft) 100,00 %
16.03.2026 06:56 4,7 °C 3,9 °C 0,0 °C 95 % 1011,8 hPa 0,0 l/m² 0 min 0 W/m² 19,3 km/h (3 Bft) 100,00 %
16.03.2026 06:59 4,8 °C 3,9 °C 0,0 °C 95 % 1011,8 hPa 0,0 l/m² 0 min 0 W/m² 16,1 km/h (3 Bft) 97,30 %
16.03.2026 07:00 4,8 °C 3,9 °C 0,0 °C 95 % 1011,8 hPa 0,0 l/m² 0 min 0 W/m² 9,7 km/h (2 Bft) 97,30 %
16.03.2026 07:04 4,8 °C 3,9 °C 0,0 °C 95 % 1011,9 hPa 0,0 l/m² 0 min 1 W/m² 16,1 km/h (3 Bft) 100,00 %
16.03.2026 07:07 4,8 °C 3,9 °C 0,0 °C 95 % 1012,0 hPa 0,0 l/m² 0 min 6 W/m² 12,9 km/h (3 Bft) 100,00 %
16.03.2026 07:08 4,8 °C 3,9 °C 0,0 °C 94 % 1012,0 hPa 0,0 l/m² 0 min 7 W/m² 12,9 km/h (3 Bft) 100,00 %
16.03.2026 07:12 4,8 °C 3,9 °C 0,0 °C 94 % 1012,0 hPa 0,0 l/m² 0 min 7 W/m² 12,9 km/h (3 Bft) 98,41 %
16.03.2026 07:15 4,8 °C 3,9 °C 0,0 °C 94 % 1012,2 hPa 0,0 l/m² 0 min 9 W/m² 19,3 km/h (3 Bft) 98,61 %
16.03.2026 07:16 4,8 °C 3,9 °C 0,0 °C 94 % 1012,2 hPa 0,0 l/m² 0 min 11 W/m² 12,9 km/h (3 Bft) 98,61 %
16.03.2026 07:20 4,8 °C 3,9 °C 0,0 °C 94 % 1012,3 hPa 0,0 l/m² 0 min 12 W/m² 19,3 km/h (3 Bft) 96,46 %
16.03.2026 07:24 4,8 °C 3,9 °C 0,0 °C 94 % 1012,3 hPa 0,0 l/m² 0 min 11 W/m² 19,3 km/h (3 Bft) 94,51 %
16.03.2026 07:28 4,8 °C 3,9 °C 0,0 °C 94 % 1012,4 hPa 0,0 l/m² 0 min 13 W/m² 16,1 km/h (3 Bft) 96,91 %
16.03.2026 07:32 4,8 °C 3,9 °C 0,0 °C 94 % 1012,4 hPa 0,0 l/m² 0 min 16 W/m² 12,9 km/h (3 Bft) 94,68 %
16.03.2026 07:36 4,8 °C 3,9 °C 0,0 °C 94 % 1012,5 hPa 0,0 l/m² 0 min 20 W/m² 9,7 km/h (2 Bft) 94,51 %
16.03.2026 07:39 4,8 °C 3,9 °C 0,0 °C 94 % 1012,6 hPa 0,0 l/m² 0 min 24 W/m² 12,9 km/h (3 Bft) 91,30 %
16.03.2026 07:40 4,8 °C 3,9 °C 0,0 °C 94 % 1012,6 hPa 0,0 l/m² 0 min 28 W/m² 6,4 km/h (2 Bft) 91,30 %
16.03.2026 07:44 4,8 °C 4,4 °C 0,0 °C 94 % 1012,6 hPa 0,0 l/m² 0 min 42 W/m² 12,9 km/h (3 Bft) 95,20 %
16.03.2026 07:47 4,9 °C 4,4 °C 0,0 °C 94 % 1012,6 hPa 0,0 l/m² 0 min 30 W/m² 12,9 km/h (3 Bft) 95,20 %
16.03.2026 07:48 4,9 °C 4,4 °C 0,0 °C 94 % 1012,6 hPa 0,0 l/m² 0 min 30 W/m² 12,9 km/h (3 Bft) 94,25 %
16.03.2026 07:52 4,9 °C 4,4 °C 0,0 °C 94 % 1012,6 hPa 0,0 l/m² 0 min 25 W/m² 22,5 km/h (4 Bft) 95,79 %
16.03.2026 07:56 5,0 °C 4,4 °C 0,0 °C 94 % 1012,7 hPa 0,0 l/m² 0 min 28 W/m² 25,7 km/h (4 Bft) 95,60 %
16.03.2026 08:00 5,1 °C 4,4 °C 0,0 °C 93 % 1012,7 hPa 0,0 l/m² 0 min 31 W/m² 16,1 km/h (3 Bft) 75,96 %
16.03.2026 08:04 5,2 °C 4,4 °C 0,0 °C 93 % 1012,7 hPa 0,0 l/m² 0 min 32 W/m² 19,3 km/h (3 Bft) 100,00 %
16.03.2026 08:08 5,3 °C 4,4 °C 0,0 °C 93 % 1012,8 hPa 0,0 l/m² 0 min 33 W/m² 22,5 km/h (4 Bft) 100,00 %
16.03.2026 08:12 5,3 °C 4,4 °C 0,6 °C 93 % 1012,8 hPa 0,0 l/m² 0 min 33 W/m² 9,7 km/h (2 Bft) 99,02 %
16.03.2026 08:16 5,3 °C 5,0 °C 0,6 °C 93 % 1012,9 hPa 0,0 l/m² 0 min 35 W/m² 16,1 km/h (3 Bft) 97,65 %
16.03.2026 08:20 5,4 °C 5,0 °C 0,6 °C 93 % 1013,0 hPa 0,0 l/m² 0 min 35 W/m² 19,3 km/h (3 Bft) 98,96 %
16.03.2026 08:24 5,5 °C 5,0 °C 0,6 °C 92 % 1013,1 hPa 0,0 l/m² 0 min 37 W/m² 22,5 km/h (4 Bft) 100,00 %
16.03.2026 08:28 5,6 °C 5,0 °C 0,6 °C 92 % 1013,1 hPa 0,0 l/m² 0 min 38 W/m² 12,9 km/h (3 Bft) 100,00 %
16.03.2026 08:32 5,6 °C 5,0 °C 0,6 °C 92 % 1013,1 hPa 0,0 l/m² 0 min 40 W/m² 16,1 km/h (3 Bft) 100,00 %
16.03.2026 08:36 5,7 °C 5,0 °C 0,6 °C 92 % 1013,3 hPa 0,0 l/m² 0 min 41 W/m² 16,1 km/h (3 Bft) 100,00 %
16.03.2026 08:40 5,8 °C 5,6 °C 0,6 °C 92 % 1013,3 hPa 0,0 l/m² 0 min 42 W/m² 19,3 km/h (3 Bft) 97,78 %
16.03.2026 08:43 5,8 °C 5,6 °C 0,6 °C 92 % 1013,4 hPa 0,0 l/m² 0 min 53 W/m² 19,3 km/h (3 Bft) 98,61 %
16.03.2026 08:44 5,9 °C 5,6 °C 0,6 °C 91 % 1013,4 hPa 0,0 l/m² 0 min 107 W/m² 12,9 km/h (3 Bft) 98,61 %
16.03.2026 08:48 5,9 °C 6,1 °C 0,6 °C 91 % 1013,5 hPa 0,0 l/m² 4 min 188 W/m² 19,3 km/h (3 Bft) 97,50 %
16.03.2026 08:51 6,1 °C 7,2 °C 1,1 °C 91 % 1013,6 hPa 0,0 l/m² 3 min 203 W/m² 19,3 km/h (3 Bft) 96,92 %
16.03.2026 08:52 6,1 °C 7,2 °C 1,1 °C 91 % 1013,5 hPa 0,0 l/m² 1 min 183 W/m² 22,5 km/h (4 Bft) 96,92 %
16.03.2026 08:56 6,2 °C 8,9 °C 1,1 °C 90 % 1013,6 hPa 0,0 l/m² 4 min 176 W/m² 22,5 km/h (4 Bft) 97,60 %
16.03.2026 08:59 6,4 °C 10,6 °C 1,7 °C 90 % 1013,6 hPa 0,0 l/m² 3 min 169 W/m² 19,3 km/h (3 Bft) 97,60 %
16.03.2026 09:00 6,4 °C 10,6 °C 1,7 °C 90 % 1013,6 hPa 0,0 l/m² 1 min 205 W/m² 19,3 km/h (3 Bft) 97,80 %
16.03.2026 09:04 6,6 °C 11,7 °C 1,7 °C 89 % 1013,7 hPa 0,0 l/m² 4 min 264 W/m² 19,3 km/h (3 Bft) 96,74 %
16.03.2026 09:08 6,7 °C 11,1 °C 1,7 °C 88 % 1013,7 hPa 0,0 l/m² 4 min 308 W/m² 25,7 km/h (4 Bft) 95,88 %
16.03.2026 09:12 6,8 °C 11,7 °C 1,7 °C 88 % 1013,7 hPa 0,0 l/m² 4 min 283 W/m² 19,3 km/h (3 Bft) 96,70 %
16.03.2026 09:16 6,9 °C 11,7 °C 2,2 °C 87 % 1013,8 hPa 0,0 l/m² 4 min 295 W/m² 16,1 km/h (3 Bft) 96,91 %
16.03.2026 09:20 7,1 °C 11,7 °C 2,2 °C 87 % 1014,0 hPa 0,0 l/m² 4 min 314 W/m² 16,1 km/h (3 Bft) 95,74 %
16.03.2026 09:24 7,2 °C 12,2 °C 2,2 °C 87 % 1013,9 hPa 0,0 l/m² 4 min 351 W/m² 22,5 km/h (4 Bft) 95,51 %
16.03.2026 09:28 7,3 °C 12,8 °C 2,2 °C 86 % 1013,9 hPa 0,0 l/m² 4 min 305 W/m² 19,3 km/h (3 Bft) 97,89 %
16.03.2026 09:32 7,4 °C 12,2 °C 2,2 °C 86 % 1013,9 hPa 0,0 l/m² 4 min 268 W/m² 16,1 km/h (3 Bft) 97,70 %
16.03.2026 09:36 7,5 °C 11,7 °C 2,2 °C 85 % 1014,0 hPa 0,0 l/m² 0 min 197 W/m² 19,3 km/h (3 Bft) 96,19 %
16.03.2026 09:40 7,5 °C 10,0 °C 2,2 °C 83 % 1014,0 hPa 0,0 l/m² 0 min 159 W/m² 29,0 km/h (5 Bft) 97,75 %
16.03.2026 09:43 7,6 °C 9,4 °C 2,2 °C 83 % 1014,1 hPa 0,0 l/m² 0 min 110 W/m² 19,3 km/h (3 Bft) 97,22 %
16.03.2026 09:44 7,6 °C 9,4 °C 2,2 °C 83 % 1014,1 hPa 0,0 l/m² 0 min 81 W/m² 19,3 km/h (3 Bft) 97,22 %
16.03.2026 09:48 7,6 °C 9,4 °C 2,2 °C 83 % 1014,1 hPa 0,0 l/m² 4 min 214 W/m² 22,5 km/h (4 Bft) 95,41 %
16.03.2026 09:51 7,6 °C 9,4 °C 2,8 °C 83 % 1014,2 hPa 0,0 l/m² 3 min 308 W/m² 19,3 km/h (3 Bft) 96,00 %
16.03.2026 09:52 7,6 °C 9,4 °C 2,8 °C 83 % 1014,3 hPa 0,0 l/m² 1 min 232 W/m² 16,1 km/h (3 Bft) 96,00 %
16.03.2026 09:56 7,6 °C 8,9 °C 2,8 °C 82 % 1014,4 hPa 0,0 l/m² 0 min 206 W/m² 22,5 km/h (4 Bft) 97,41 %
16.03.2026 09:59 7,6 °C 7,8 °C 2,8 °C 82 % 1014,4 hPa 0,0 l/m² 0 min 153 W/m² 29,0 km/h (5 Bft) 97,41 %
16.03.2026 10:00 7,6 °C 8,3 °C 2,8 °C 82 % 1014,4 hPa 0,0 l/m² 0 min 159 W/m² 29,0 km/h (5 Bft) 97,75 %
16.03.2026 10:04 7,6 °C 8,9 °C 2,8 °C 82 % 1014,3 hPa 0,0 l/m² 4 min 470 W/m² 22,5 km/h (4 Bft) 98,94 %
16.03.2026 10:08 7,7 °C 10,0 °C 3,9 °C 81 % 1014,4 hPa 0,0 l/m² 4 min 338 W/m² 25,7 km/h (4 Bft) 99,03 %
16.03.2026 10:12 7,8 °C 10,6 °C 3,9 °C 81 % 1014,4 hPa 0,0 l/m² 0 min 115 W/m² 16,1 km/h (3 Bft) 98,88 %
16.03.2026 10:15 8,0 °C 11,1 °C 4,4 °C 81 % 1014,5 hPa 0,0 l/m² 3 min 282 W/m² 19,3 km/h (3 Bft) 98,55 %
16.03.2026 10:16 8,1 °C 10,6 °C 4,4 °C 81 % 1014,5 hPa 0,0 l/m² 1 min 468 W/m² 19,3 km/h (3 Bft) 98,55 %
16.03.2026 10:20 8,1 °C 11,1 °C 4,4 °C 81 % 1014,6 hPa 0,0 l/m² 0 min 208 W/m² 19,3 km/h (3 Bft) 100,00 %
16.03.2026 10:23 8,2 °C 10,6 °C 5,0 °C 80 % 1014,6 hPa 0,0 l/m² 3 min 296 W/m² 32,2 km/h (5 Bft) 98,67 %
16.03.2026 10:24 8,2 °C 10,0 °C 5,0 °C 79 % 1014,6 hPa 0,0 l/m² 0 min 193 W/m² 25,7 km/h (4 Bft) 98,67 %
16.03.2026 10:28 8,2 °C 10,6 °C 5,6 °C 79 % 1014,8 hPa 0,0 l/m² 4 min 298 W/m² 25,7 km/h (4 Bft) 97,14 %
16.03.2026 10:31 8,1 °C 9,4 °C 4,4 °C 78 % 1014,8 hPa 0,0 l/m² 0 min 175 W/m² 25,7 km/h (4 Bft) 98,61 %
16.03.2026 10:32 8,1 °C 9,4 °C 4,4 °C 78 % 1014,8 hPa 0,0 l/m² 0 min 146 W/m² 19,3 km/h (3 Bft) 98,61 %
16.03.2026 10:36 8,1 °C 11,1 °C 5,0 °C 79 % 1014,8 hPa 0,0 l/m² 0 min 189 W/m² 25,7 km/h (4 Bft) 96,77 %
16.03.2026 10:39 8,1 °C 9,4 °C 4,4 °C 79 % 1014,9 hPa 0,0 l/m² 0 min 203 W/m² 25,7 km/h (4 Bft) 94,29 %
16.03.2026 10:40 8,1 °C 9,4 °C 4,4 °C 78 % 1015,0 hPa 0,0 l/m² 0 min 160 W/m² 16,1 km/h (3 Bft) 94,29 %
16.03.2026 10:44 8,1 °C 8,3 °C 4,4 °C 79 % 1014,9 hPa 0,0 l/m² 0 min 185 W/m² 29,0 km/h (5 Bft) 97,14 %
16.03.2026 10:47 8,0 °C 8,3 °C 3,9 °C 78 % 1015,0 hPa 0,0 l/m² 0 min 195 W/m² 32,2 km/h (5 Bft) 97,14 %
16.03.2026 10:48 8,0 °C 8,9 °C 4,4 °C 79 % 1015,0 hPa 0,0 l/m² 0 min 195 W/m² 32,2 km/h (5 Bft) 98,13 %
16.03.2026 10:52 8,0 °C 8,9 °C 4,4 °C 79 % 1015,0 hPa 0,0 l/m² 0 min 163 W/m² 12,9 km/h (3 Bft) 73,49 %
16.03.2026 10:56 8,0 °C 8,3 °C 3,9 °C 78 % 1015,0 hPa 0,0 l/m² 0 min 148 W/m² 25,7 km/h (4 Bft) 97,75 %
16.03.2026 11:00 8,1 °C 10,0 °C 5,0 °C 78 % 1015,1 hPa 0,0 l/m² 0 min 249 W/m² 12,9 km/h (3 Bft) 96,84 %
16.03.2026 11:04 8,3 °C 12,8 °C 6,7 °C 77 % 1015,0 hPa 0,0 l/m² 4 min 327 W/m² 19,3 km/h (3 Bft) 95,92 %
16.03.2026 11:07 8,6 °C 13,3 °C 7,8 °C 77 % 1015,2 hPa 0,0 l/m² 3 min 648 W/m² 19,3 km/h (3 Bft) 98,57 %
16.03.2026 11:08 8,7 °C 13,9 °C 8,3 °C 76 % 1015,2 hPa 0,0 l/m² 1 min 381 W/m² 12,9 km/h (3 Bft) 98,57 %
16.03.2026 11:12 9,0 °C 12,8 °C 7,8 °C 76 % 1015,2 hPa 0,0 l/m² 4 min 466 W/m² 22,5 km/h (4 Bft) 96,46 %
16.03.2026 11:15 9,1 °C 14,4 °C 9,4 °C 75 % 1015,2 hPa 0,0 l/m² 0 min 183 W/m² 35,4 km/h (5 Bft) 97,10 %
16.03.2026 11:16 9,2 °C 15,0 °C 9,4 °C 74 % 1015,2 hPa 0,0 l/m² 1 min 621 W/m² 19,3 km/h (3 Bft) 97,10 %
16.03.2026 11:20 9,4 °C 16,7 °C 11,1 °C 73 % 1015,2 hPa 0,0 l/m² 4 min 638 W/m² 22,5 km/h (4 Bft) 94,69 %
16.03.2026 11:23 9,6 °C 16,7 °C 11,1 °C 73 % 1015,3 hPa 0,0 l/m² 3 min 655 W/m² 29,0 km/h (5 Bft) 93,06 %
16.03.2026 11:24 9,6 °C 16,7 °C 11,7 °C 72 % 1015,4 hPa 0,0 l/m² 1 min 696 W/m² 16,1 km/h (3 Bft) 93,06 %
16.03.2026 11:28 9,7 °C 16,1 °C 11,1 °C 72 % 1015,5 hPa 0,0 l/m² 4 min 550 W/m² 16,1 km/h (3 Bft) 95,83 %
16.03.2026 11:31 9,9 °C 16,7 °C 11,7 °C 73 % 1015,5 hPa 0,0 l/m² 3 min 658 W/m² 22,5 km/h (4 Bft) 91,78 %
16.03.2026 11:32 9,9 °C 16,7 °C 11,7 °C 73 % 1015,5 hPa 0,0 l/m² 1 min 654 W/m² 19,3 km/h (3 Bft) 91,78 %
16.03.2026 11:36 10,1 °C 17,8 °C 12,2 °C 71 % 1015,4 hPa 0,0 l/m² 4 min 676 W/m² 22,5 km/h (4 Bft) 92,04 %
16.03.2026 11:39 10,2 °C 14,4 °C 10,6 °C 71 % 1015,5 hPa 0,0 l/m² 3 min 740 W/m² 19,3 km/h (3 Bft) 92,65 %
16.03.2026 11:40 10,1 °C 13,9 °C 10,0 °C 71 % 1015,4 hPa 0,0 l/m² 1 min 740 W/m² 9,7 km/h (2 Bft) 92,65 %
16.03.2026 11:44 10,1 °C 12,8 °C 8,9 °C 71 % 1015,5 hPa 0,0 l/m² 4 min 299 W/m² 19,3 km/h (3 Bft) 92,00 %
16.03.2026 11:47 9,7 °C 10,6 °C 7,2 °C 70 % 1015,5 hPa 0,0 l/m² 0 min 144 W/m² 19,3 km/h (3 Bft) 92,00 %
16.03.2026 11:48 9,7 °C 10,6 °C 7,2 °C 70 % 1015,5 hPa 0,0 l/m² 0 min 141 W/m² 19,3 km/h (3 Bft) 91,76 %
16.03.2026 11:52 9,6 °C 14,4 °C 8,9 °C 71 % 1015,7 hPa 0,0 l/m² 4 min 539 W/m² 19,3 km/h (3 Bft) 91,67 %
16.03.2026 11:56 9,8 °C 13,3 °C 8,9 °C 71 % 1015,7 hPa 0,0 l/m² 4 min 536 W/m² 12,9 km/h (3 Bft) 94,17 %
16.03.2026 12:00 10,1 °C 16,7 °C 10,6 °C 71 % 1015,6 hPa 0,0 l/m² 4 min 733 W/m² 22,5 km/h (4 Bft) 94,44 %
16.03.2026 12:04 10,2 °C 16,1 °C 10,6 °C 70 % 1015,7 hPa 0,0 l/m² 4 min 654 W/m² 16,1 km/h (3 Bft) 97,87 %
16.03.2026 12:08 10,3 °C 15,0 °C 10,0 °C 69 % 1015,7 hPa 0,0 l/m² 4 min 323 W/m² 19,3 km/h (3 Bft) 96,88 %
16.03.2026 12:12 10,5 °C 13,9 °C 8,9 °C 70 % 1015,7 hPa 0,0 l/m² 4 min 403 W/m² 16,1 km/h (3 Bft) 97,73 %
16.03.2026 12:16 10,6 °C 12,8 °C 8,3 °C 69 % 1015,8 hPa 0,2 l/m² 4 min 612 W/m² 19,3 km/h (3 Bft) 97,85 %
16.03.2026 12:20 10,3 °C 10,6 °C 6,7 °C 67 % 1015,8 hPa 0,0 l/m² 0 min 252 W/m² 25,7 km/h (4 Bft) 96,91 %
16.03.2026 12:24 10,1 °C 9,4 °C 6,1 °C 69 % 1015,9 hPa 0,0 l/m² 0 min 88 W/m² 22,5 km/h (4 Bft) 97,73 %
16.03.2026 12:28 9,8 °C 8,9 °C 5,6 °C 70 % 1015,9 hPa 0,0 l/m² 0 min 123 W/m² 25,7 km/h (4 Bft) 98,10 %
16.03.2026 12:32 9,6 °C 13,9 °C 7,2 °C 72 % 1016,0 hPa 0,0 l/m² 0 min 190 W/m² 22,5 km/h (4 Bft) 100,00 %
16.03.2026 12:36 9,6 °C 11,1 °C 6,7 °C 72 % 1016,1 hPa 0,0 l/m² 0 min 172 W/m² 29,0 km/h (5 Bft) 100,00 %
16.03.2026 12:40 9,4 °C 12,2 °C 6,1 °C 74 % 1016,1 hPa 0,0 l/m² 0 min 187 W/m² 16,1 km/h (3 Bft) 100,00 %
16.03.2026 12:44 9,4 °C 11,7 °C 6,7 °C 74 % 1016,0 hPa 0,0 l/m² 0 min 175 W/m² 22,5 km/h (4 Bft) 100,00 %
16.03.2026 12:48 9,5 °C 11,1 °C 6,1 °C 74 % 1016,2 hPa 0,0 l/m² 0 min 195 W/m² 16,1 km/h (3 Bft) 98,91 %
16.03.2026 12:52 9,4 °C 10,0 °C 6,1 °C 73 % 1016,1 hPa 0,0 l/m² 0 min 154 W/m² 16,1 km/h (3 Bft) 98,89 %
16.03.2026 12:56 9,4 °C 12,2 °C 5,6 °C 74 % 1016,2 hPa 0,0 l/m² 0 min 118 W/m² 19,3 km/h (3 Bft) 100,00 %
16.03.2026 13:00 9,7 °C 16,1 °C 6,1 °C 74 % 1016,2 hPa 0,0 l/m² 4 min 652 W/m² 19,3 km/h (3 Bft) 100,00 %
16.03.2026 13:04 10,2 °C 17,2 °C 6,1 °C 72 % 1016,2 hPa 0,0 l/m² 4 min 657 W/m² 29,0 km/h (5 Bft) 100,00 %
16.03.2026 13:08 10,6 °C 18,3 °C 6,7 °C 70 % 1016,2 hPa 0,0 l/m² 4 min 651 W/m² 19,3 km/h (3 Bft) 100,00 %
16.03.2026 13:12 10,9 °C 17,8 °C 6,7 °C 70 % 1016,3 hPa 0,0 l/m² 4 min 654 W/m² 16,1 km/h (3 Bft) 98,88 %
16.03.2026 13:15 11,2 °C 18,3 °C 6,7 °C 69 % 1016,3 hPa 0,0 l/m² 3 min 653 W/m² 16,1 km/h (3 Bft) 100,00 %
16.03.2026 13:16 11,2 °C 18,3 °C 6,7 °C 68 % 1016,2 hPa 0,0 l/m² 1 min 650 W/m² 16,1 km/h (3 Bft) 100,00 %
16.03.2026 13:20 11,3 °C 18,3 °C 7,2 °C 67 % 1016,2 hPa 0,0 l/m² 4 min 653 W/m² 32,2 km/h (5 Bft) 99,12 %
16.03.2026 13:23 11,4 °C 18,9 °C 7,2 °C 65 % 1016,2 hPa 0,0 l/m² 3 min 648 W/m² 22,5 km/h (4 Bft) 97,01 %
16.03.2026 13:24 11,4 °C 18,9 °C 7,2 °C 65 % 1016,2 hPa 0,0 l/m² 1 min 652 W/m² 16,1 km/h (3 Bft) 97,01 %
16.03.2026 13:28 11,6 °C 18,3 °C 7,2 °C 65 % 1016,2 hPa 0,0 l/m² 4 min 656 W/m² 22,5 km/h (4 Bft) 96,80 %
16.03.2026 13:31 11,6 °C 17,8 °C 7,2 °C 63 % 1016,1 hPa 0,0 l/m² 3 min 655 W/m² 22,5 km/h (4 Bft) 97,14 %
16.03.2026 13:32 11,6 °C 17,2 °C 7,2 °C 63 % 1016,2 hPa 0,0 l/m² 1 min 650 W/m² 25,7 km/h (4 Bft) 97,14 %
16.03.2026 13:36 11,7 °C 18,3 °C 7,2 °C 63 % 1016,2 hPa 0,0 l/m² 4 min 654 W/m² 25,7 km/h (4 Bft) 98,25 %
16.03.2026 13:39 11,7 °C 18,3 °C 7,2 °C 63 % 1016,3 hPa 0,0 l/m² 3 min 679 W/m² 19,3 km/h (3 Bft) 97,10 %
16.03.2026 13:40 11,8 °C 18,9 °C 7,2 °C 63 % 1016,2 hPa 0,0 l/m² 1 min 717 W/m² 22,5 km/h (4 Bft) 97,10 %
16.03.2026 13:44 11,8 °C 17,8 °C 7,2 °C 61 % 1016,3 hPa 0,0 l/m² 4 min 732 W/m² 32,2 km/h (5 Bft) 98,31 %
16.03.2026 13:47 11,9 °C 17,2 °C 7,8 °C 63 % 1016,3 hPa 0,0 l/m² 3 min 742 W/m² 29,0 km/h (5 Bft) 98,31 %
16.03.2026 13:48 12,0 °C 17,8 °C 7,8 °C 63 % 1016,3 hPa 0,0 l/m² 1 min 742 W/m² 29,0 km/h (5 Bft) 95,88 %
16.03.2026 13:52 12,1 °C 17,8 °C 7,8 °C 63 % 1016,3 hPa 0,0 l/m² 4 min 677 W/m² 29,0 km/h (5 Bft) 97,78 %
16.03.2026 13:55 12,2 °C 17,8 °C 7,8 °C 62 % 1016,3 hPa 0,0 l/m² 3 min 678 W/m² 19,3 km/h (3 Bft) 96,63 %
16.03.2026 13:56 12,2 °C 17,8 °C 7,8 °C 62 % 1016,2 hPa 0,0 l/m² 1 min 684 W/m² 12,9 km/h (3 Bft) 96,63 %
16.03.2026 14:00 12,2 °C 16,7 °C 7,8 °C 60 % 1016,3 hPa 0,0 l/m² 4 min 645 W/m² 19,3 km/h (3 Bft) 96,77 %
16.03.2026 14:03 12,1 °C 17,2 °C 7,8 °C 60 % 1016,3 hPa 0,0 l/m² 3 min 293 W/m² 12,9 km/h (3 Bft) 97,18 %
16.03.2026 14:04 12,1 °C 17,2 °C 7,8 °C 61 % 1016,3 hPa 0,0 l/m² 1 min 707 W/m² 16,1 km/h (3 Bft) 97,18 %
16.03.2026 14:08 12,0 °C 13,3 °C 7,2 °C 59 % 1016,3 hPa 0,0 l/m² 4 min 421 W/m² 25,7 km/h (4 Bft) 97,58 %
16.03.2026 14:11 11,6 °C 13,9 °C 6,7 °C 60 % 1016,5 hPa 0,0 l/m² 0 min 106 W/m² 25,7 km/h (4 Bft) 98,53 %
16.03.2026 14:12 11,6 °C 15,0 °C 6,7 °C 61 % 1016,5 hPa 0,0 l/m² 0 min 105 W/m² 12,9 km/h (3 Bft) 98,53 %
16.03.2026 14:16 11,7 °C 15,0 °C 7,2 °C 62 % 1016,4 hPa 0,0 l/m² 4 min 494 W/m² 22,5 km/h (4 Bft) 97,58 %
16.03.2026 14:19 11,6 °C 13,9 °C 6,7 °C 62 % 1016,5 hPa 0,0 l/m² 0 min 151 W/m² 19,3 km/h (3 Bft) 97,58 %
16.03.2026 14:20 11,5 °C 14,4 °C 6,7 °C 62 % 1016,5 hPa 0,0 l/m² 0 min 148 W/m² 19,3 km/h (3 Bft) 96,81 %
16.03.2026 14:24 11,6 °C 15,6 °C 7,2 °C 62 % 1016,6 hPa 0,0 l/m² 4 min 571 W/m² 22,5 km/h (4 Bft) 97,67 %
16.03.2026 14:27 11,4 °C 12,8 °C 6,7 °C 62 % 1016,6 hPa 0,0 l/m² 3 min 290 W/m² 22,5 km/h (4 Bft) 98,61 %
16.03.2026 14:28 11,3 °C 12,2 °C 6,7 °C 62 % 1016,7 hPa 0,0 l/m² 0 min 123 W/m² 9,7 km/h (2 Bft) 98,61 %
16.03.2026 14:32 11,1 °C 13,9 °C 6,7 °C 62 % 1016,6 hPa 0,0 l/m² 0 min 152 W/m² 22,5 km/h (4 Bft) 97,56 %
16.03.2026 14:35 11,2 °C 16,1 °C 6,7 °C 64 % 1016,6 hPa 0,0 l/m² 3 min 576 W/m² 19,3 km/h (3 Bft) 97,18 %
16.03.2026 14:36 11,2 °C 15,6 °C 7,2 °C 64 % 1016,6 hPa 0,0 l/m² 1 min 552 W/m² 12,9 km/h (3 Bft) 97,18 %
16.03.2026 14:40 11,3 °C 13,3 °C 6,7 °C 62 % 1016,6 hPa 0,0 l/m² 4 min 352 W/m² 19,3 km/h (3 Bft) 98,10 %
16.03.2026 14:43 11,3 °C 12,2 °C 6,7 °C 62 % 1016,7 hPa 0,0 l/m² 0 min 229 W/m² 9,7 km/h (2 Bft) 97,33 %
16.03.2026 14:44 11,2 °C 12,2 °C 6,7 °C 62 % 1016,7 hPa 0,0 l/m² 0 min 178 W/m² 16,1 km/h (3 Bft) 97,33 %
16.03.2026 14:48 11,1 °C 12,2 °C 6,7 °C 63 % 1016,8 hPa 0,0 l/m² 0 min 181 W/m² 16,1 km/h (3 Bft) 98,33 %
16.03.2026 14:51 11,2 °C 14,4 °C 7,2 °C 63 % 1016,8 hPa 0,0 l/m² 3 min 527 W/m² 16,1 km/h (3 Bft) 100,00 %
16.03.2026 14:52 11,2 °C 15,0 °C 7,2 °C 63 % 1016,8 hPa 0,0 l/m² 1 min 596 W/m² 12,9 km/h (3 Bft) 100,00 %
16.03.2026 14:56 11,3 °C 12,8 °C 7,2 °C 63 % 1016,9 hPa 0,0 l/m² 4 min 309 W/m² 19,3 km/h (3 Bft) 99,19 %
16.03.2026 14:59 11,2 °C 11,7 °C 6,7 °C 63 % 1016,9 hPa 0,0 l/m² 0 min 116 W/m² 16,1 km/h (3 Bft) 100,00 %
16.03.2026 15:00 11,2 °C 11,1 °C 6,7 °C 63 % 1016,9 hPa 0,0 l/m² 0 min 105 W/m² 16,1 km/h (3 Bft) 100,00 %
16.03.2026 15:04 10,9 °C 10,6 °C 6,7 °C 64 % 1017,0 hPa 0,0 l/m² 0 min 98 W/m² 19,3 km/h (3 Bft) 100,00 %
16.03.2026 15:07 10,7 °C 10,6 °C 6,1 °C 64 % 1017,0 hPa 0,0 l/m² 0 min 107 W/m² 16,1 km/h (3 Bft) 98,59 %
16.03.2026 15:08 10,7 °C 10,6 °C 6,1 °C 65 % 1017,0 hPa 0,0 l/m² 0 min 121 W/m² 9,7 km/h (2 Bft) 98,59 %
16.03.2026 15:12 10,6 °C 11,7 °C 6,1 °C 65 % 1017,1 hPa 0,0 l/m² 0 min 137 W/m² 19,3 km/h (3 Bft) 97,58 %
16.03.2026 15:15 10,7 °C 13,9 °C 6,7 °C 65 % 1017,1 hPa 0,0 l/m² 3 min 517 W/m² 19,3 km/h (3 Bft) 100,00 %
16.03.2026 15:16 10,8 °C 13,9 °C 6,7 °C 65 % 1017,1 hPa 0,0 l/m² 1 min 418 W/m² 12,9 km/h (3 Bft) 100,00 %
16.03.2026 15:20 10,9 °C 12,2 °C 6,7 °C 64 % 1017,2 hPa 0,0 l/m² 4 min 260 W/m² 16,1 km/h (3 Bft) 98,21 %
16.03.2026 15:23 10,9 °C 10,6 °C 6,1 °C 65 % 1017,2 hPa 0,0 l/m² 0 min 67 W/m² 12,9 km/h (3 Bft) 97,14 %
16.03.2026 15:24 10,8 °C 10,6 °C 6,1 °C 65 % 1017,2 hPa 0,0 l/m² 0 min 58 W/m² 9,7 km/h (2 Bft) 97,14 %
16.03.2026 15:28 10,6 °C 10,0 °C 5,6 °C 65 % 1017,3 hPa 0,0 l/m² 0 min 62 W/m² 22,5 km/h (4 Bft) 98,26 %
16.03.2026 15:31 10,6 °C 12,8 °C 6,1 °C 65 % 1017,3 hPa 0,0 l/m² 3 min 485 W/m² 25,7 km/h (4 Bft) 98,26 %
16.03.2026 15:32 10,6 °C 13,3 °C 6,1 °C 65 % 1017,3 hPa 0,0 l/m² 1 min 363 W/m² 25,7 km/h (4 Bft) 96,88 %
16.03.2026 15:36 10,9 °C 15,0 °C 6,7 °C 65 % 1017,3 hPa 0,0 l/m² 4 min 494 W/m² 16,1 km/h (3 Bft) 96,91 %
16.03.2026 15:40 11,3 °C 15,0 °C 7,2 °C 65 % 1017,4 hPa 0,0 l/m² 4 min 412 W/m² 16,1 km/h (3 Bft) 93,68 %
16.03.2026 15:44 11,6 °C 16,1 °C 7,8 °C 64 % 1017,4 hPa 0,0 l/m² 4 min 539 W/m² 12,9 km/h (3 Bft) 95,29 %
16.03.2026 15:48 11,9 °C 16,1 °C 7,8 °C 64 % 1017,4 hPa 0,0 l/m² 4 min 540 W/m² 19,3 km/h (3 Bft) 95,33 %
16.03.2026 15:52 11,9 °C 12,8 °C 7,2 °C 62 % 1017,3 hPa 0,0 l/m² 4 min 287 W/m² 16,1 km/h (3 Bft) 95,56 %
16.03.2026 15:56 11,7 °C 11,7 °C 6,7 °C 62 % 1017,3 hPa 0,0 l/m² 0 min 120 W/m² 12,9 km/h (3 Bft) 94,38 %
16.03.2026 16:00 11,4 °C 11,1 °C 6,7 °C 63 % 1017,4 hPa 0,0 l/m² 0 min 123 W/m² 16,1 km/h (3 Bft) 95,51 %
16.03.2026 16:04 11,2 °C 12,2 °C 6,7 °C 63 % 1017,4 hPa 0,0 l/m² 0 min 183 W/m² 12,9 km/h (3 Bft) 94,74 %
16.03.2026 16:08 11,3 °C 14,4 °C 6,7 °C 64 % 1017,4 hPa 0,0 l/m² 4 min 372 W/m² 22,5 km/h (4 Bft) 95,70 %
16.03.2026 16:12 11,5 °C 15,6 °C 7,2 °C 64 % 1017,4 hPa 0,0 l/m² 4 min 436 W/m² 9,7 km/h (2 Bft) 95,51 %
16.03.2026 16:16 11,7 °C 13,3 °C 7,2 °C 62 % 1017,4 hPa 0,0 l/m² 4 min 388 W/m² 22,5 km/h (4 Bft) 95,24 %
16.03.2026 16:19 11,7 °C 12,8 °C 7,2 °C 62 % 1017,5 hPa 0,0 l/m² 3 min 225 W/m² 19,3 km/h (3 Bft) 95,77 %
16.03.2026 16:20 11,6 °C 12,8 °C 7,2 °C 61 % 1017,5 hPa 0,0 l/m² 1 min 172 W/m² 9,7 km/h (2 Bft) 95,77 %
16.03.2026 16:24 11,5 °C 11,7 °C 7,2 °C 62 % 1017,5 hPa 0,0 l/m² 0 min 165 W/m² 22,5 km/h (4 Bft) 93,97 %
16.03.2026 16:27 11,3 °C 11,7 °C 6,7 °C 61 % 1017,6 hPa 0,0 l/m² 3 min 202 W/m² 16,1 km/h (3 Bft) 97,59 %
16.03.2026 16:28 11,3 °C 11,7 °C 6,7 °C 61 % 1017,6 hPa 0,0 l/m² 1 min 190 W/m² 12,9 km/h (3 Bft) 97,59 %
16.03.2026 16:32 11,3 °C 11,7 °C 6,7 °C 62 % 1017,6 hPa 0,0 l/m² 4 min 181 W/m² 16,1 km/h (3 Bft) 100,00 %
16.03.2026 16:35 11,2 °C 11,1 °C 6,7 °C 61 % 1017,7 hPa 0,0 l/m² 0 min 113 W/m² 16,1 km/h (3 Bft) 98,55 %
16.03.2026 16:36 11,2 °C 11,1 °C 6,7 °C 61 % 1017,7 hPa 0,0 l/m² 0 min 107 W/m² 16,1 km/h (3 Bft) 98,55 %
16.03.2026 16:40 11,1 °C 10,6 °C 6,7 °C 62 % 1017,7 hPa 0,0 l/m² 0 min 108 W/m² 16,1 km/h (3 Bft) 95,04 %
16.03.2026 16:43 10,9 °C 10,0 °C 6,1 °C 62 % 1017,8 hPa 0,0 l/m² 0 min 67 W/m² 16,1 km/h (3 Bft) 98,59 %
16.03.2026 16:44 10,9 °C 10,0 °C 6,1 °C 62 % 1017,7 hPa 0,0 l/m² 0 min 49 W/m² 12,9 km/h (3 Bft) 98,59 %
16.03.2026 16:48 10,7 °C 10,0 °C 6,1 °C 62 % 1017,8 hPa 0,0 l/m² 0 min 61 W/m² 16,1 km/h (3 Bft) 97,14 %
16.03.2026 16:51 10,6 °C 10,0 °C 5,6 °C 63 % 1017,9 hPa 0,0 l/m² 0 min 59 W/m² 12,9 km/h (3 Bft) 96,05 %
16.03.2026 16:52 10,6 °C 10,0 °C 5,6 °C 63 % 1017,8 hPa 0,0 l/m² 0 min 62 W/m² 9,7 km/h (2 Bft) 96,05 %
16.03.2026 16:56 10,4 °C 10,0 °C 5,6 °C 64 % 1017,9 hPa 0,0 l/m² 0 min 98 W/m² 12,9 km/h (3 Bft) 97,41 %
16.03.2026 16:59 10,4 °C 10,0 °C 5,6 °C 64 % 1017,9 hPa 0,0 l/m² 0 min 47 W/m² 12,9 km/h (3 Bft) 97,30 %
16.03.2026 17:00 10,4 °C 10,0 °C 5,6 °C 65 % 1017,9 hPa 0,0 l/m² 0 min 53 W/m² 6,4 km/h (2 Bft) 97,30 %
16.03.2026 17:04 10,3 °C 10,0 °C 5,6 °C 65 % 1017,9 hPa 0,0 l/m² 0 min 54 W/m² 9,7 km/h (2 Bft) 97,27 %
16.03.2026 17:07 10,2 °C 10,0 °C 5,6 °C 65 % 1018,0 hPa 0,0 l/m² 0 min 63 W/m² 9,7 km/h (2 Bft) 98,57 %
16.03.2026 17:08 10,2 °C 10,0 °C 5,6 °C 65 % 1018,1 hPa 0,0 l/m² 0 min 65 W/m² 6,4 km/h (2 Bft) 98,57 %
16.03.2026 17:12 10,2 °C 9,4 °C 5,6 °C 66 % 1018,0 hPa 0,0 l/m² 0 min 49 W/m² 9,7 km/h (2 Bft) 97,58 %
16.03.2026 17:15 10,1 °C 9,4 °C 5,0 °C 66 % 1018,0 hPa 0,0 l/m² 0 min 33 W/m² 6,4 km/h (2 Bft) 98,53 %
16.03.2026 17:16 10,1 °C 9,4 °C 5,0 °C 66 % 1018,1 hPa 0,0 l/m² 0 min 33 W/m² 3,2 km/h (1 Bft) 98,53 %
16.03.2026 17:20 10,1 °C 9,4 °C 5,0 °C 68 % 1018,2 hPa 0,0 l/m² 0 min 41 W/m² 6,4 km/h (2 Bft) 96,40 %
16.03.2026 17:23 10,0 °C 9,4 °C 5,0 °C 68 % 1018,2 hPa 0,0 l/m² 0 min 79 W/m² 6,4 km/h (2 Bft) 100,00 %
16.03.2026 17:24 10,0 °C 9,4 °C 5,0 °C 68 % 1018,2 hPa 0,0 l/m² 0 min 67 W/m² 9,7 km/h (2 Bft) 100,00 %
16.03.2026 17:28 10,0 °C 9,4 °C 5,6 °C 68 % 1018,2 hPa 0,0 l/m² 0 min 79 W/m² 9,7 km/h (2 Bft) 99,14 %
16.03.2026 17:31 9,9 °C 10,0 °C 5,6 °C 68 % 1018,3 hPa 0,0 l/m² 0 min 84 W/m² 9,7 km/h (2 Bft) 98,63 %
16.03.2026 17:32 9,9 °C 10,0 °C 5,6 °C 68 % 1018,3 hPa 0,0 l/m² 1 min 88 W/m² 3,2 km/h (1 Bft) 98,63 %
16.03.2026 17:36 9,9 °C 9,4 °C 5,6 °C 68 % 1018,3 hPa 0,0 l/m² 4 min 79 W/m² 9,7 km/h (2 Bft) 99,13 %
16.03.2026 17:39 9,9 °C 9,4 °C 5,6 °C 68 % 1018,4 hPa 0,0 l/m² 3 min 81 W/m² 6,4 km/h (2 Bft) 99,13 %
16.03.2026 17:40 9,9 °C 9,4 °C 5,6 °C 68 % 1018,4 hPa 0,0 l/m² 0 min 70 W/m² 9,7 km/h (2 Bft) 100,00 %
16.03.2026 17:46 9,9 °C 9,4 °C 5,6 °C 67 % 1018,4 hPa 0,0 l/m² 0 min 55 W/m² 16,1 km/h (3 Bft) 97,84 %
16.03.2026 17:48 9,9 °C 9,4 °C 5,0 °C 68 % 1018,4 hPa 0,0 l/m² 0 min 36 W/m² 6,4 km/h (2 Bft) 100,00 %
16.03.2026 17:50 9,9 °C 9,4 °C 5,0 °C 68 % 1018,5 hPa 0,0 l/m² 0 min 28 W/m² 16,1 km/h (3 Bft) 97,87 %
16.03.2026 17:52 9,9 °C 8,9 °C 5,0 °C 67 % 1018,5 hPa 0,0 l/m² 0 min 27 W/m² 12,9 km/h (3 Bft) 97,87 %
16.03.2026 17:54 9,8 °C 8,9 °C 5,0 °C 67 % 1018,5 hPa 0,0 l/m² 0 min 26 W/m² 6,4 km/h (2 Bft) 97,83 %
16.03.2026 17:56 9,8 °C 8,9 °C 5,0 °C 67 % 1018,5 hPa 0,0 l/m² 0 min 25 W/m² 9,7 km/h (2 Bft) 100,00 %
16.03.2026 17:58 9,7 °C 8,9 °C 5,0 °C 67 % 1018,5 hPa 0,0 l/m² 0 min 26 W/m² 9,7 km/h (2 Bft) 97,87 %
16.03.2026 18:00 9,7 °C 8,9 °C 5,0 °C 68 % 1018,5 hPa 0,0 l/m² 0 min 23 W/m² 12,9 km/h (3 Bft) 97,87 %
16.03.2026 18:02 9,7 °C 8,9 °C 5,0 °C 68 % 1018,6 hPa 0,0 l/m² 0 min 19 W/m² 9,7 km/h (2 Bft) 97,87 %
16.03.2026 18:04 9,6 °C 8,3 °C 5,0 °C 68 % 1018,6 hPa 0,0 l/m² 0 min 16 W/m² 9,7 km/h (2 Bft) 97,92 %
16.03.2026 18:07 9,6 °C 8,3 °C 5,0 °C 68 % 1018,7 hPa 0,0 l/m² 0 min 15 W/m² 9,7 km/h (2 Bft) 96,10 %
16.03.2026 18:10 9,5 °C 8,3 °C 4,4 °C 69 % 1018,7 hPa 0,0 l/m² 0 min 14 W/m² 3,2 km/h (1 Bft) 97,15 %
16.03.2026 18:12 9,4 °C 8,3 °C 4,4 °C 69 % 1018,7 hPa 0,0 l/m² 0 min 13 W/m² 6,4 km/h (2 Bft) 97,14 %
16.03.2026 18:14 9,4 °C 8,3 °C 4,4 °C 69 % 1018,7 hPa 0,0 l/m² 0 min 12 W/m² 3,2 km/h (1 Bft) 97,87 %
16.03.2026 18:16 9,3 °C 8,3 °C 4,4 °C 69 % 1018,8 hPa 0,0 l/m² 0 min 11 W/m² 6,4 km/h (2 Bft) 95,74 %
16.03.2026 18:18 9,3 °C 8,3 °C 4,4 °C 70 % 1018,8 hPa 0,0 l/m² 0 min 11 W/m² 9,7 km/h (2 Bft) 95,74 %
16.03.2026 18:20 9,3 °C 8,3 °C 4,4 °C 70 % 1018,9 hPa 0,0 l/m² 0 min 11 W/m² 3,2 km/h (1 Bft) 97,83 %
16.03.2026 18:22 9,3 °C 8,3 °C 4,4 °C 70 % 1018,9 hPa 0,0 l/m² 0 min 9 W/m² 3,2 km/h (1 Bft) 95,74 %
16.03.2026 18:24 9,2 °C 7,8 °C 4,4 °C 70 % 1018,9 hPa 0,0 l/m² 0 min 8 W/m² 3,2 km/h (1 Bft) 95,74 %
16.03.2026 18:26 9,2 °C 7,8 °C 4,4 °C 70 % 1018,9 hPa 0,0 l/m² 0 min 7 W/m² 6,4 km/h (2 Bft) 95,74 %
16.03.2026 18:28 9,2 °C 7,8 °C 4,4 °C 71 % 1018,9 hPa 0,0 l/m² 0 min 6 W/m² 3,2 km/h (1 Bft) 93,62 %
16.03.2026 18:30 9,1 °C 7,8 °C 3,9 °C 71 % 1019,0 hPa 0,0 l/m² 0 min 5 W/m² 3,2 km/h (1 Bft) 91,49 %
16.03.2026 18:32 9,1 °C 7,8 °C 3,9 °C 71 % 1019,0 hPa 0,0 l/m² 0 min 5 W/m² 0,0 km/h (0 Bft) 97,83 %
16.03.2026 18:34 9,1 °C 7,2 °C 3,9 °C 71 % 1019,0 hPa 0,0 l/m² 0 min 5 W/m² 0,0 km/h (0 Bft) 97,87 %
16.03.2026 18:36 9,0 °C 7,2 °C 3,9 °C 71 % 1019,0 hPa 0,0 l/m² 0 min 1 W/m² 3,2 km/h (1 Bft) 95,74 %
16.03.2026 18:38 8,9 °C 7,2 °C 3,3 °C 71 % 1019,1 hPa 0,0 l/m² 0 min 0 W/m² 0,0 km/h (0 Bft) 95,74 %
16.03.2026 18:40 8,9 °C 7,2 °C 3,3 °C 71 % 1019,1 hPa 0,0 l/m² 0 min 0 W/m² 0,0 km/h (0 Bft) 97,87 %
16.03.2026 18:42 8,9 °C 6,7 °C 3,3 °C 71 % 1019,1 hPa 0,0 l/m² 0 min 0 W/m² 0,0 km/h (0 Bft) 97,87 %
16.03.2026 18:44 8,9 °C 6,7 °C 2,8 °C 71 % 1019,2 hPa 0,0 l/m² 0 min 0 W/m² 0,0 km/h (0 Bft) 97,83 %
16.03.2026 18:46 8,8 °C 6,7 °C 2,8 °C 71 % 1019,2 hPa 0,0 l/m² 0 min 0 W/m² 0,0 km/h (0 Bft) 93,62 %
16.03.2026 18:48 8,8 °C 6,7 °C 2,8 °C 72 % 1019,3 hPa 0,0 l/m² 0 min 0 W/m² 0,0 km/h (0 Bft) 95,74 %
16.03.2026 18:50 8,8 °C 6,7 °C 2,8 °C 72 % 1019,3 hPa 0,0 l/m² 0 min 0 W/m² 0,0 km/h (0 Bft) 100,00 %
16.03.2026 18:52 8,7 °C 6,7 °C 2,8 °C 72 % 1019,3 hPa 0,0 l/m² 0 min 0 W/m² 0,0 km/h (0 Bft) 97,87 %
16.03.2026 18:54 8,7 °C 6,7 °C 2,8 °C 72 % 1019,3 hPa 0,0 l/m² 0 min 0 W/m² 0,0 km/h (0 Bft) 97,87 %
16.03.2026 18:56 8,6 °C 6,7 °C 2,8 °C 72 % 1019,3 hPa 0,0 l/m² 0 min 0 W/m² 0,0 km/h (0 Bft) 100,00 %
16.03.2026 18:58 8,6 °C 6,7 °C 2,8 °C 72 % 1019,4 hPa 0,0 l/m² 0 min 0 W/m² 0,0 km/h (0 Bft) 97,87 %
16.03.2026 19:00 8,6 °C 6,7 °C 2,8 °C 73 % 1019,4 hPa 0,0 l/m² 0 min 0 W/m² 6,4 km/h (2 Bft) 100,00 %
16.03.2026 19:02 8,4 °C 6,7 °C 2,8 °C 73 % 1019,4 hPa 0,0 l/m² 0 min 0 W/m² 3,2 km/h (1 Bft) 100,00 %
16.03.2026 19:04 8,4 °C 6,7 °C 2,8 °C 73 % 1019,5 hPa 0,0 l/m² 0 min 0 W/m² 0,0 km/h (0 Bft) 97,87 %
16.03.2026 19:06 8,3 °C 7,2 °C 2,8 °C 74 % 1019,4 hPa 0,0 l/m² 0 min 0 W/m² 3,2 km/h (1 Bft) 100,00 %
16.03.2026 19:08 8,3 °C 7,2 °C 2,8 °C 74 % 1019,5 hPa 0,0 l/m² 0 min 0 W/m² 3,2 km/h (1 Bft) 100,00 %
16.03.2026 19:10 8,3 °C 7,2 °C 2,8 °C 74 % 1019,4 hPa 0,0 l/m² 0 min 0 W/m² 0,0 km/h (0 Bft) 97,87 %
16.03.2026 19:12 8,3 °C 6,7 °C 2,8 °C 74 % 1019,5 hPa 0,0 l/m² 0 min 0 W/m² 0,0 km/h (0 Bft) 100,00 %
16.03.2026 19:14 8,2 °C 6,7 °C 2,8 °C 74 % 1019,6 hPa 0,0 l/m² 0 min 0 W/m² 0,0 km/h (0 Bft) 100,00 %
16.03.2026 19:16 8,2 °C 6,7 °C 2,8 °C 74 % 1019,6 hPa 0,0 l/m² 0 min 0 W/m² 0,0 km/h (0 Bft) 100,00 %
16.03.2026 19:18 8,2 °C 6,7 °C 2,8 °C 75 % 1019,6 hPa 0,0 l/m² 0 min 0 W/m² 0,0 km/h (0 Bft) 100,00 %
16.03.2026 19:20 8,2 °C 6,7 °C 2,8 °C 75 % 1019,7 hPa 0,0 l/m² 0 min 0 W/m² 0,0 km/h (0 Bft) 100,00 %
16.03.2026 19:22 8,2 °C 6,7 °C 2,8 °C 75 % 1019,6 hPa 0,0 l/m² 0 min 0 W/m² 0,0 km/h (0 Bft) 100,00 %
16.03.2026 19:24 8,1 °C 6,7 °C 2,8 °C 76 % 1019,7 hPa 0,0 l/m² 0 min 0 W/m² 0,0 km/h (0 Bft) 100,00 %
16.03.2026 19:26 8,1 °C 6,7 °C 2,8 °C 76 % 1019,7 hPa 0,0 l/m² 0 min 0 W/m² 0,0 km/h (0 Bft) 97,83 %
16.03.2026 19:28 8,1 °C 6,7 °C 2,8 °C 75 % 1019,6 hPa 0,0 l/m² 0 min 0 W/m² 0,0 km/h (0 Bft) 100,00 %
16.03.2026 19:30 8,1 °C 6,7 °C 2,8 °C 76 % 1019,6 hPa 0,0 l/m² 0 min 0 W/m² 0,0 km/h (0 Bft) 97,87 %
16.03.2026 19:32 8,1 °C 6,7 °C 2,8 °C 76 % 1019,7 hPa 0,0 l/m² 0 min 0 W/m² 0,0 km/h (0 Bft) 95,74 %
16.03.2026 19:34 8,0 °C 6,7 °C 2,8 °C 76 % 1019,7 hPa 0,0 l/m² 0 min 0 W/m² 0,0 km/h (0 Bft) 97,87 %
16.03.2026 19:36 8,0 °C 6,7 °C 2,8 °C 76 % 1019,7 hPa 0,0 l/m² 0 min 0 W/m² 3,2 km/h (1 Bft) 97,87 %
16.03.2026 19:38 7,9 °C 6,7 °C 2,8 °C 77 % 1019,8 hPa 0,0 l/m² 0 min 0 W/m² 0,0 km/h (0 Bft) 93,48 %
16.03.2026 19:40 7,9 °C 6,7 °C 2,8 °C 77 % 1019,8 hPa 0,0 l/m² 0 min 0 W/m² 0,0 km/h (0 Bft) 97,87 %
16.03.2026 19:42 7,9 °C 6,7 °C 2,8 °C 77 % 1019,8 hPa 0,0 l/m² 0 min 0 W/m² 3,2 km/h (1 Bft) 97,87 %
16.03.2026 19:44 7,9 °C 6,7 °C 2,8 °C 77 % 1019,8 hPa 0,0 l/m² 0 min 0 W/m² 0,0 km/h (0 Bft) 95,74 %
16.03.2026 19:46 7,9 °C 6,7 °C 2,8 °C 78 % 1019,8 hPa 0,0 l/m² 0 min 0 W/m² 0,0 km/h (0 Bft) 97,87 %
16.03.2026 19:48 7,8 °C 6,7 °C 2,8 °C 78 % 1019,9 hPa 0,0 l/m² 0 min 0 W/m² 0,0 km/h (0 Bft) 93,62 %
16.03.2026 19:50 7,8 °C 6,7 °C 2,8 °C 78 % 1019,9 hPa 0,0 l/m² 0 min 0 W/m² 3,2 km/h (1 Bft) 95,65 %
16.03.2026 19:52 7,8 °C 6,7 °C 2,8 °C 78 % 1019,9 hPa 0,0 l/m² 0 min 0 W/m² 0,0 km/h (0 Bft) 91,49 %
16.03.2026 19:54 7,8 °C 6,1 °C 2,2 °C 78 % 1019,9 hPa 0,0 l/m² 0 min 0 W/m² 0,0 km/h (0 Bft) 93,62 %
16.03.2026 19:56 7,8 °C 6,1 °C 2,2 °C 78 % 1019,9 hPa 0,0 l/m² 0 min 0 W/m² 0,0 km/h (0 Bft) 89,36 %
16.03.2026 19:58 7,7 °C 6,7 °C 2,2 °C 78 % 1019,8 hPa 0,0 l/m² 0 min 0 W/m² 0,0 km/h (0 Bft) 95,74 %
16.03.2026 20:00 7,7 °C 6,7 °C 2,2 °C 78 % 1019,9 hPa 0,0 l/m² 0 min 0 W/m² 0,0 km/h (0 Bft) 95,74 %
16.03.2026 20:02 7,7 °C 6,1 °C 2,2 °C 77 % 1019,9 hPa 0,0 l/m² 0 min 0 W/m² 0,0 km/h (0 Bft) 93,48 %
16.03.2026 20:04 7,7 °C 6,1 °C 2,2 °C 78 % 1019,9 hPa 0,0 l/m² 0 min 0 W/m² 0,0 km/h (0 Bft) 95,92 %
16.03.2026 20:06 7,6 °C 6,7 °C 2,2 °C 78 % 1019,9 hPa 0,0 l/m² 0 min 0 W/m² 3,2 km/h (1 Bft) 94,92 %
16.03.2026 20:08 7,6 °C 6,7 °C 2,2 °C 78 % 1019,9 hPa 0,0 l/m² 0 min 0 W/m² 0,0 km/h (0 Bft) 97,56 %
16.03.2026 20:10 7,6 °C 6,7 °C 2,2 °C 78 % 1019,9 hPa 0,0 l/m² 0 min 0 W/m² 0,0 km/h (0 Bft) 94,00 %
16.03.2026 20:12 7,6 °C 6,7 °C 2,8 °C 78 % 1019,9 hPa 0,0 l/m² 0 min 0 W/m² 0,0 km/h (0 Bft) 95,74 %
16.03.2026 20:14 7,6 °C 6,7 °C 2,8 °C 78 % 1020,0 hPa 0,0 l/m² 0 min 0 W/m² 0,0 km/h (0 Bft) 93,62 %
16.03.2026 20:16 7,6 °C 6,7 °C 2,8 °C 79 % 1019,9 hPa 0,0 l/m² 0 min 0 W/m² 0,0 km/h (0 Bft) 97,87 %
16.03.2026 20:18 7,6 °C 6,7 °C 2,8 °C 79 % 1019,9 hPa 0,0 l/m² 0 min 0 W/m² 3,2 km/h (1 Bft) 97,83 %
16.03.2026 20:20 7,6 °C 6,7 °C 2,8 °C 79 % 1019,9 hPa 0,0 l/m² 0 min 0 W/m² 3,2 km/h (1 Bft) 99,12 %
16.03.2026 20:25 7,6 °C 6,7 °C 2,8 °C 79 % 1020,0 hPa 0,0 l/m² 0 min 0 W/m² 3,2 km/h (1 Bft) 97,37 %
16.03.2026 20:30 7,6 °C 6,7 °C 2,8 °C 79 % 1020,0 hPa 0,0 l/m² 0 min 0 W/m² 3,2 km/h (1 Bft) 98,25 %
16.03.2026 20:35 7,6 °C 6,7 °C 3,3 °C 79 % 1020,0 hPa 0,0 l/m² 0 min 0 W/m² 3,2 km/h (1 Bft) 99,12 %
16.03.2026 20:40 7,6 °C 6,7 °C 3,3 °C 79 % 1020,0 hPa 0,0 l/m² 0 min 0 W/m² 3,2 km/h (1 Bft) 100,00 %
16.03.2026 20:45 7,6 °C 6,7 °C 3,3 °C 79 % 1020,2 hPa 0,0 l/m² 0 min 0 W/m² 0,0 km/h (0 Bft) 99,12 %
16.03.2026 20:50 7,6 °C 6,7 °C 3,3 °C 79 % 1020,2 hPa 0,0 l/m² 0 min 0 W/m² 0,0 km/h (0 Bft) 85,09 %
16.03.2026 20:55 7,6 °C 6,7 °C 2,8 °C 80 % 1020,2 hPa 0,0 l/m² 0 min 0 W/m² 0,0 km/h (0 Bft) 82,46 %
16.03.2026 21:00 7,5 °C 6,7 °C 2,8 °C 80 % 1020,3 hPa 0,0 l/m² 0 min 0 W/m² 3,2 km/h (1 Bft) 100,00 %
16.03.2026 21:05 7,5 °C 6,7 °C 2,8 °C 80 % 1020,4 hPa 0,0 l/m² 0 min 0 W/m² 0,0 km/h (0 Bft) 100,00 %
16.03.2026 21:10 7,4 °C 6,1 °C 2,8 °C 80 % 1020,3 hPa 0,0 l/m² 0 min 0 W/m² 0,0 km/h (0 Bft) 100,00 %
16.03.2026 21:15 7,4 °C 6,1 °C 2,2 °C 80 % 1020,3 hPa 0,0 l/m² 0 min 0 W/m² 3,2 km/h (1 Bft) 100,00 %
16.03.2026 21:20 7,4 °C 6,1 °C 2,2 °C 80 % 1020,4 hPa 0,0 l/m² 0 min 0 W/m² 0,0 km/h (0 Bft) 100,00 %
16.03.2026 21:25 7,3 °C 6,1 °C 2,2 °C 80 % 1020,4 hPa 0,0 l/m² 0 min 0 W/m² 3,2 km/h (1 Bft) 100,00 %
16.03.2026 21:30 7,3 °C 6,1 °C 2,8 °C 81 % 1020,4 hPa 0,0 l/m² 0 min 0 W/m² 3,2 km/h (1 Bft) 100,00 %
16.03.2026 21:35 7,3 °C 6,7 °C 2,8 °C 81 % 1020,4 hPa 0,0 l/m² 0 min 0 W/m² 0,0 km/h (0 Bft) 100,00 %
16.03.2026 21:40 7,3 °C 6,7 °C 2,8 °C 81 % 1020,4 hPa 0,0 l/m² 0 min 0 W/m² 0,0 km/h (0 Bft) 100,00 %
16.03.2026 21:45 7,2 °C 6,7 °C 2,8 °C 81 % 1020,4 hPa 0,0 l/m² 0 min 0 W/m² 3,2 km/h (1 Bft) 99,12 %
16.03.2026 21:50 7,2 °C 6,7 °C 2,8 °C 81 % 1020,4 hPa 0,0 l/m² 0 min 0 W/m² 3,2 km/h (1 Bft) 100,00 %
16.03.2026 21:55 7,2 °C 6,7 °C 2,8 °C 81 % 1020,4 hPa 0,0 l/m² 0 min 0 W/m² 6,4 km/h (2 Bft) 100,00 %
16.03.2026 22:00 7,3 °C 6,7 °C 2,8 °C 81 % 1020,4 hPa 0,0 l/m² 0 min 0 W/m² 6,4 km/h (2 Bft) 99,12 %
16.03.2026 22:05 7,3 °C 6,7 °C 2,8 °C 81 % 1020,4 hPa 0,0 l/m² 0 min 0 W/m² 6,4 km/h (2 Bft) 100,00 %
16.03.2026 22:10 7,3 °C 6,7 °C 3,3 °C 81 % 1020,4 hPa 0,0 l/m² 0 min 0 W/m² 9,7 km/h (2 Bft) 100,00 %
16.03.2026 22:15 7,3 °C 6,7 °C 3,3 °C 81 % 1020,4 hPa 0,0 l/m² 0 min 0 W/m² 6,4 km/h (2 Bft) 100,00 %
16.03.2026 22:20 7,3 °C 6,7 °C 3,3 °C 81 % 1020,5 hPa 0,0 l/m² 0 min 0 W/m² 6,4 km/h (2 Bft) 100,00 %
16.03.2026 22:25 7,3 °C 6,7 °C 3,3 °C 81 % 1020,5 hPa 0,0 l/m² 0 min 0 W/m² 6,4 km/h (2 Bft) 100,00 %
16.03.2026 22:30 7,4 °C 6,7 °C 3,3 °C 81 % 1020,6 hPa 0,0 l/m² 0 min 0 W/m² 6,4 km/h (2 Bft) 100,00 %
16.03.2026 22:35 7,4 °C 6,7 °C 3,3 °C 81 % 1020,5 hPa 0,0 l/m² 0 min 0 W/m² 6,4 km/h (2 Bft) 100,00 %
16.03.2026 22:40 7,4 °C 6,7 °C 3,3 °C 81 % 1020,5 hPa 0,0 l/m² 0 min 0 W/m² 9,7 km/h (2 Bft) 100,00 %
16.03.2026 22:45 7,4 °C 6,7 °C 3,3 °C 81 % 1020,5 hPa 0,0 l/m² 0 min 0 W/m² 9,7 km/h (2 Bft) 99,12 %
16.03.2026 22:50 7,4 °C 6,7 °C 3,3 °C 81 % 1020,5 hPa 0,0 l/m² 0 min 0 W/m² 6,4 km/h (2 Bft) 98,25 %
16.03.2026 22:55 7,5 °C 6,7 °C 3,3 °C 81 % 1020,5 hPa 0,0 l/m² 0 min 0 W/m² 9,7 km/h (2 Bft) 97,37 %
16.03.2026 23:00 7,5 °C 6,7 °C 3,3 °C 81 % 1020,5 hPa 0,0 l/m² 0 min 0 W/m² 9,7 km/h (2 Bft) 98,25 %
16.03.2026 23:05 7,4 °C 6,7 °C 2,8 °C 81 % 1020,5 hPa 0,0 l/m² 0 min 0 W/m² 3,2 km/h (1 Bft) 97,37 %
16.03.2026 23:10 7,4 °C 6,7 °C 2,8 °C 81 % 1020,6 hPa 0,0 l/m² 0 min 0 W/m² 3,2 km/h (1 Bft) 96,49 %
16.03.2026 23:15 7,4 °C 6,7 °C 2,8 °C 81 % 1020,6 hPa 0,0 l/m² 0 min 0 W/m² 6,4 km/h (2 Bft) 98,25 %
16.03.2026 23:20 7,4 °C 6,7 °C 2,8 °C 81 % 1020,6 hPa 0,0 l/m² 0 min 0 W/m² 3,2 km/h (1 Bft) 98,25 %
16.03.2026 23:25 7,4 °C 6,7 °C 2,8 °C 81 % 1020,6 hPa 0,0 l/m² 0 min 0 W/m² 6,4 km/h (2 Bft) 96,49 %
16.03.2026 23:30 7,4 °C 6,7 °C 3,3 °C 81 % 1020,7 hPa 0,0 l/m² 0 min 0 W/m² 6,4 km/h (2 Bft) 94,74 %
16.03.2026 23:35 7,4 °C 6,7 °C 3,3 °C 82 % 1020,7 hPa 0,0 l/m² 0 min 0 W/m² 6,4 km/h (2 Bft) 97,37 %
16.03.2026 23:40 7,4 °C 6,7 °C 3,3 °C 82 % 1020,7 hPa 0,0 l/m² 0 min 0 W/m² 6,4 km/h (2 Bft) 97,37 %
16.03.2026 23:45 7,4 °C 6,7 °C 3,3 °C 82 % 1020,8 hPa 0,0 l/m² 0 min 0 W/m² 9,7 km/h (2 Bft) 100,00 %
16.03.2026 23:50 7,4 °C 6,7 °C 3,3 °C 82 % 1020,7 hPa 0,0 l/m² 0 min 0 W/m² 6,4 km/h (2 Bft) 100,00 %
16.03.2026 23:55 7,4 °C 6,7 °C 2,8 °C 82 % 1020,8 hPa 0,0 l/m² 0 min 0 W/m² 6,4 km/h (2 Bft) 79,82 %
_ Min-Zeit 06:28 06:20 06:20 14:08 04:08 - - - 18:32 10:52
Minimum _ 4,4 °C 3,3 °C 0,0 °C 59 % 1009,9 hPa - - - 0,0 km/h (0 Bft) 73,49 %
_ Max-Zeit 13:55 13:23 11:36 05:56 23:45 06:20 08:48 13:47 02:08 00:52
Maximum _ 12,2 °C 18,9 °C 12,2 °C 96 % 1020,8 hPa 1,2 l/m² 4 min 742 W/m² 57,9 km/h
SW (7 Bft)
100,00 %
Durchschnitt _ 7,8 °C 8,2 °C 3,4 °C 80 % 1015,3 hPa #5,8 l/m² #5:07 h 250 W/m² 15,6 km/h (3 Bft) 97,25 %
© 2026 W. Hausmann